sensor_id;sensor_type;location;lat;lon;timestamp;temperature;humidity
69938;DHT22;57248;47.320;15.998;2022-09-12T00:02:21;13.42;86.05
69938;DHT22;57248;47.320;15.998;2022-09-12T00:04:46;13.39;86.46
69938;DHT22;57248;47.320;15.998;2022-09-12T00:07:12;13.38;86.16
69938;DHT22;57248;47.320;15.998;2022-09-12T00:09:38;13.26;86.93
69938;DHT22;57248;47.320;15.998;2022-09-12T00:12:04;13.23;87.07
69938;DHT22;57248;47.320;15.998;2022-09-12T00:14:29;13.19;87.38
69938;DHT22;57248;47.320;15.998;2022-09-12T00:16:59;13.16;87.59
69938;DHT22;57248;47.320;15.998;2022-09-12T00:19:26;13.19;87.96
69938;DHT22;57248;47.320;15.998;2022-09-12T00:21:52;13.19;87.46
69938;DHT22;57248;47.320;15.998;2022-09-12T00:24:18;13.15;88.59
69938;DHT22;57248;47.320;15.998;2022-09-12T00:26:44;13.22;87.86
69938;DHT22;57248;47.320;15.998;2022-09-12T00:29:20;13.23;87.38
69938;DHT22;57248;47.320;15.998;2022-09-12T00:31:46;13.23;87.54
69938;DHT22;57248;47.320;15.998;2022-09-12T00:34:12;13.27;87.53
69938;DHT22;57248;47.320;15.998;2022-09-12T00:36:38;13.32;86.84
69938;DHT22;57248;47.320;15.998;2022-09-12T00:39:05;13.26;87.73
69938;DHT22;57248;47.320;15.998;2022-09-12T00:41:37;13.19;87.16
69938;DHT22;57248;47.320;15.998;2022-09-12T00:49:31;13.02;87.59
69938;DHT22;57248;47.320;15.998;2022-09-12T00:52:02;12.72;88.54
69938;DHT22;57248;47.320;15.998;2022-09-12T00:54:32;12.72;88.42
69938;DHT22;57248;47.320;15.998;2022-09-12T00:57:00;12.79;88.07
69938;DHT22;57248;47.320;15.998;2022-09-12T00:59:42;12.71;87.97
69938;DHT22;57248;47.320;15.998;2022-09-12T01:02:09;12.69;88.47
69938;DHT22;57248;47.320;15.998;2022-09-12T01:04:36;12.68;88.10
69938;DHT22;57248;47.320;15.998;2022-09-12T01:07:03;12.64;88.21
69938;DHT22;57248;47.320;15.998;2022-09-12T01:09:30;12.60;87.78
69938;DHT22;57248;47.320;15.998;2022-09-12T01:11:56;12.42;88.96
69938;DHT22;57248;47.320;15.998;2022-09-12T01:14:21;12.26;90.02
69938;DHT22;57248;47.320;15.998;2022-09-12T01:16:48;12.36;89.24
69938;DHT22;57248;47.320;15.998;2022-09-12T01:35:37;12.12;89.55
69938;DHT22;57248;47.320;15.998;2022-09-12T01:41:10;11.83;90.01
69938;DHT22;57248;47.320;15.998;2022-09-12T01:43:51;11.89;89.71
69938;DHT22;57248;47.320;15.998;2022-09-12T01:49:19;11.82;88.84
69938;DHT22;57248;47.320;15.998;2022-09-12T01:52:01;11.76;89.23
69938;DHT22;57248;47.320;15.998;2022-09-12T01:54:40;11.72;89.67
69938;DHT22;57248;47.320;15.998;2022-09-12T01:57:12;11.62;89.41
69938;DHT22;57248;47.320;15.998;2022-09-12T01:59:42;11.59;89.38
69938;DHT22;57248;47.320;15.998;2022-09-12T02:02:37;11.57;89.20
69938;DHT22;57248;47.320;15.998;2022-09-12T02:05:15;11.58;89.72
69938;DHT22;57248;47.320;15.998;2022-09-12T02:07:45;11.48;89.45
69938;DHT22;57248;47.320;15.998;2022-09-12T02:10:35;11.48;90.11
69938;DHT22;57248;47.320;15.998;2022-09-12T02:13:24;11.43;89.60
69938;DHT22;57248;47.320;15.998;2022-09-12T02:15:59;11.36;88.98
69938;DHT22;57248;47.320;15.998;2022-09-12T02:18:27;11.34;89.43
69938;DHT22;57248;47.320;15.998;2022-09-12T02:20:55;11.31;89.38
69938;DHT22;57248;47.320;15.998;2022-09-12T02:23:23;11.31;89.86
69938;DHT22;57248;47.320;15.998;2022-09-12T02:25:53;11.25;90.72
69938;DHT22;57248;47.320;15.998;2022-09-12T02:28:33;11.06;91.90
69938;DHT22;57248;47.320;15.998;2022-09-12T02:34:16;11.18;91.24
69938;DHT22;57248;47.320;15.998;2022-09-12T02:36:52;11.20;91.44
69938;DHT22;57248;47.320;15.998;2022-09-12T02:39:19;11.17;90.54
69938;DHT22;57248;47.320;15.998;2022-09-12T02:41:47;11.08;89.73
69938;DHT22;57248;47.320;15.998;2022-09-12T02:44:14;10.99;89.54
69938;DHT22;57248;47.320;15.998;2022-09-12T02:46:43;10.97;90.15
69938;DHT22;57248;47.320;15.998;2022-09-12T02:49:11;10.97;89.99
69938;DHT22;57248;47.320;15.998;2022-09-12T02:51:36;10.84;90.35
69938;DHT22;57248;47.320;15.998;2022-09-12T02:54:02;10.74;90.43
69938;DHT22;57248;47.320;15.998;2022-09-12T02:56:30;10.74;91.22
69938;DHT22;57248;47.320;15.998;2022-09-12T02:59:03;10.77;90.78
69938;DHT22;57248;47.320;15.998;2022-09-12T03:09:44;10.64;91.44
69938;DHT22;57248;47.320;15.998;2022-09-12T03:13:14;10.63;92.18
69938;DHT22;57248;47.320;15.998;2022-09-12T03:15:48;10.60;91.71
69938;DHT22;57248;47.320;15.998;2022-09-12T03:18:31;10.67;91.93
69938;DHT22;57248;47.320;15.998;2022-09-12T03:24:15;10.50;90.51
69938;DHT22;57248;47.320;15.998;2022-09-12T03:29:11;10.33;90.04
69938;DHT22;57248;47.320;15.998;2022-09-12T03:31:47;10.26;90.39
69938;DHT22;57248;47.320;15.998;2022-09-12T03:34:13;10.13;90.78
69938;DHT22;57248;47.320;15.998;2022-09-12T03:36:38;10.12;90.56
69938;DHT22;57248;47.320;15.998;2022-09-12T03:39:05;10.15;90.40
69938;DHT22;57248;47.320;15.998;2022-09-12T03:41:30;10.13;90.42
69938;DHT22;57248;47.320;15.998;2022-09-12T03:43:56;10.18;91.18
69938;DHT22;57248;47.320;15.998;2022-09-12T03:46:21;10.13;92.00
69938;DHT22;57248;47.320;15.998;2022-09-12T03:48:47;10.16;92.40
69938;DHT22;57248;47.320;15.998;2022-09-12T03:51:12;10.21;91.82
69938;DHT22;57248;47.320;15.998;2022-09-12T03:53:38;10.12;91.68
69938;DHT22;57248;47.320;15.998;2022-09-12T03:56:08;10.01;91.14
69938;DHT22;57248;47.320;15.998;2022-09-12T03:58:35;9.77;91.41
69938;DHT22;57248;47.320;15.998;2022-09-12T04:01:08;9.85;91.75
69938;DHT22;57248;47.320;15.998;2022-09-12T04:03:38;9.75;92.02
69938;DHT22;57248;47.320;15.998;2022-09-12T04:06:04;9.65;92.34
69938;DHT22;57248;47.320;15.998;2022-09-12T04:08:30;9.70;92.43
69938;DHT22;57248;47.320;15.998;2022-09-12T04:11:05;9.70;91.74
69938;DHT22;57248;47.320;15.998;2022-09-12T04:13:31;9.82;91.82
69938;DHT22;57248;47.320;15.998;2022-09-12T04:15:58;9.78;92.18
69938;DHT22;57248;47.320;15.998;2022-09-12T04:18:24;9.73;91.86
69938;DHT22;57248;47.320;15.998;2022-09-12T04:20:50;9.71;91.58
69938;DHT22;57248;47.320;15.998;2022-09-12T04:23:15;9.67;91.25
69938;DHT22;57248;47.320;15.998;2022-09-12T04:25:41;9.64;91.77
69938;DHT22;57248;47.320;15.998;2022-09-12T04:28:07;9.63;91.50
69938;DHT22;57248;47.320;15.998;2022-09-12T04:30:33;9.55;90.80
69938;DHT22;57248;47.320;15.998;2022-09-12T04:32:59;9.54;91.45
69938;DHT22;57248;47.320;15.998;2022-09-12T04:35:25;9.65;91.27
69938;DHT22;57248;47.320;15.998;2022-09-12T04:37:52;9.64;90.40
69938;DHT22;57248;47.320;15.998;2022-09-12T04:40:17;9.71;91.46
69938;DHT22;57248;47.320;15.998;2022-09-12T04:42:43;9.70;91.59
69938;DHT22;57248;47.320;15.998;2022-09-12T04:45:09;9.73;91.14
69938;DHT22;57248;47.320;15.998;2022-09-12T04:47:35;9.70;91.06
69938;DHT22;57248;47.320;15.998;2022-09-12T04:50:00;9.71;90.82
69938;DHT22;57248;47.320;15.998;2022-09-12T04:52:25;9.64;91.30
69938;DHT22;57248;47.320;15.998;2022-09-12T04:54:51;9.65;91.54
69938;DHT22;57248;47.320;15.998;2022-09-12T04:57:17;9.46;91.43
69938;DHT22;57248;47.320;15.998;2022-09-12T04:59:43;9.57;91.84
69938;DHT22;57248;47.320;15.998;2022-09-12T05:02:08;9.78;92.02
69938;DHT22;57248;47.320;15.998;2022-09-12T05:04:33;9.91;90.67
69938;DHT22;57248;47.320;15.998;2022-09-12T05:07:00;9.94;90.76
69938;DHT22;57248;47.320;15.998;2022-09-12T05:09:26;10.08;91.17
69938;DHT22;57248;47.320;15.998;2022-09-12T05:11:52;10.19;90.41
69938;DHT22;57248;47.320;15.998;2022-09-12T05:14:17;10.33;89.59
69938;DHT22;57248;47.320;15.998;2022-09-12T05:16:43;10.84;89.35
69938;DHT22;57248;47.320;15.998;2022-09-12T05:19:10;10.69;88.42
69938;DHT22;57248;47.320;15.998;2022-09-12T05:21:35;10.66;87.68
69938;DHT22;57248;47.320;15.998;2022-09-12T05:24:01;10.69;89.95
69938;DHT22;57248;47.320;15.998;2022-09-12T05:26:27;11.06;89.61
69938;DHT22;57248;47.320;15.998;2022-09-12T05:28:53;11.01;88.88
69938;DHT22;57248;47.320;15.998;2022-09-12T05:31:24;11.10;89.54
69938;DHT22;57248;47.320;15.998;2022-09-12T05:33:52;11.24;89.86
69938;DHT22;57248;47.320;15.998;2022-09-12T05:36:27;11.61;89.46
69938;DHT22;57248;47.320;15.998;2022-09-12T05:38:53;11.58;88.44
69938;DHT22;57248;47.320;15.998;2022-09-12T05:41:24;11.87;88.23
69938;DHT22;57248;47.320;15.998;2022-09-12T05:43:52;12.12;87.85
69938;DHT22;57248;47.320;15.998;2022-09-12T05:46:20;12.24;87.61
69938;DHT22;57248;47.320;15.998;2022-09-12T05:48:47;12.44;86.07
69938;DHT22;57248;47.320;15.998;2022-09-12T05:51:27;12.64;86.39
69938;DHT22;57248;47.320;15.998;2022-09-12T05:53:55;12.79;85.98
69938;DHT22;57248;47.320;15.998;2022-09-12T05:56:23;13.78;84.61
69938;DHT22;57248;47.320;15.998;2022-09-12T05:59:00;13.54;84.19
69938;DHT22;57248;47.320;15.998;2022-09-12T06:01:27;13.54;84.79
69938;DHT22;57248;47.320;15.998;2022-09-12T06:03:55;13.66;84.18
69938;DHT22;57248;47.320;15.998;2022-09-12T06:06:23;13.95;83.96
69938;DHT22;57248;47.320;15.998;2022-09-12T06:08:51;13.95;82.61
69938;DHT22;57248;47.320;15.998;2022-09-12T06:11:19;14.35;81.80
69938;DHT22;57248;47.320;15.998;2022-09-12T06:13:45;14.67;82.07
69938;DHT22;57248;47.320;15.998;2022-09-12T06:18:39;15.07;79.84
69938;DHT22;57248;47.320;15.998;2022-09-12T06:21:07;15.35;81.00
69938;DHT22;57248;47.320;15.998;2022-09-12T06:23:33;15.57;78.83
69938;DHT22;57248;47.320;15.998;2022-09-12T06:25:59;16.05;77.44
69938;DHT22;57248;47.320;15.998;2022-09-12T06:28:25;16.13;76.57
69938;DHT22;57248;47.320;15.998;2022-09-12T06:30:51;16.12;76.30
69938;DHT22;57248;47.320;15.998;2022-09-12T06:33:17;16.46;76.83
69938;DHT22;57248;47.320;15.998;2022-09-12T06:35:44;16.40;73.74
69938;DHT22;57248;47.320;15.998;2022-09-12T06:38:10;16.75;73.44
69938;DHT22;57248;47.320;15.998;2022-09-12T06:40:42;17.20;72.75
69938;DHT22;57248;47.320;15.998;2022-09-12T06:43:11;17.26;71.38
69938;DHT22;57248;47.320;15.998;2022-09-12T06:45:47;17.30;71.08
69938;DHT22;57248;47.320;15.998;2022-09-12T06:48:14;17.30;70.66
69938;DHT22;57248;47.320;15.998;2022-09-12T06:50:39;17.63;70.35
69938;DHT22;57248;47.320;15.998;2022-09-12T06:53:05;17.93;69.26
69938;DHT22;57248;47.320;15.998;2022-09-12T06:55:31;18.24;68.01
69938;DHT22;57248;47.320;15.998;2022-09-12T06:57:58;18.93;66.56
69938;DHT22;57248;47.320;15.998;2022-09-12T07:00:24;19.18;66.65
69938;DHT22;57248;47.320;15.998;2022-09-12T07:02:55;19.34;64.43
69938;DHT22;57248;47.320;15.998;2022-09-12T07:05:23;19.59;63.84
69938;DHT22;57248;47.320;15.998;2022-09-12T07:07:49;19.95;64.25
69938;DHT22;57248;47.320;15.998;2022-09-12T07:10:14;19.41;61.91
69938;DHT22;57248;47.320;15.998;2022-09-12T07:12:40;19.92;63.30
69938;DHT22;57248;47.320;15.998;2022-09-12T07:15:06;20.03;62.67
69938;DHT22;57248;47.320;15.998;2022-09-12T07:17:31;19.82;61.18
69938;DHT22;57248;47.320;15.998;2022-09-12T07:19:57;19.28;61.96
69938;DHT22;57248;47.320;15.998;2022-09-12T07:22:22;19.89;61.07
69938;DHT22;57248;47.320;15.998;2022-09-12T07:24:48;20.17;59.99
69938;DHT22;57248;47.320;15.998;2022-09-12T07:27:14;19.87;59.84
69938;DHT22;57248;47.320;15.998;2022-09-12T07:29:40;19.76;60.56
69938;DHT22;57248;47.320;15.998;2022-09-12T07:32:05;19.36;61.82
69938;DHT22;57248;47.320;15.998;2022-09-12T07:34:31;19.68;60.47
69938;DHT22;57248;47.320;15.998;2022-09-12T07:36:56;19.71;61.22
69938;DHT22;57248;47.320;15.998;2022-09-12T07:39:22;20.27;61.06
69938;DHT22;57248;47.320;15.998;2022-09-12T07:41:48;20.13;60.22
69938;DHT22;57248;47.320;15.998;2022-09-12T07:44:13;20.61;59.39
69938;DHT22;57248;47.320;15.998;2022-09-12T07:46:39;20.77;60.81
69938;DHT22;57248;47.320;15.998;2022-09-12T07:49:04;20.60;58.67
69938;DHT22;57248;47.320;15.998;2022-09-12T07:51:30;20.88;58.50
69938;DHT22;57248;47.320;15.998;2022-09-12T07:53:56;21.43;57.70
69938;DHT22;57248;47.320;15.998;2022-09-12T07:56:23;21.15;57.73
69938;DHT22;57248;47.320;15.998;2022-09-12T07:58:48;21.73;56.69
69938;DHT22;57248;47.320;15.998;2022-09-12T08:01:19;21.35;58.01
69938;DHT22;57248;47.320;15.998;2022-09-12T08:03:48;21.49;57.92
69938;DHT22;57248;47.320;15.998;2022-09-12T08:06:16;22.04;55.92
69938;DHT22;57248;47.320;15.998;2022-09-12T08:08:46;22.11;54.78
69938;DHT22;57248;47.320;15.998;2022-09-12T08:11:14;21.57;55.54
69938;DHT22;57248;47.320;15.998;2022-09-12T08:13:41;21.25;57.23
69938;DHT22;57248;47.320;15.998;2022-09-12T08:16:18;22.99;51.62
69938;DHT22;57248;47.320;15.998;2022-09-12T08:18:46;26.23;46.11
69938;DHT22;57248;47.320;15.998;2022-09-12T08:21:14;26.06;45.82
69938;DHT22;57248;47.320;15.998;2022-09-12T08:23:42;26.14;43.14
69938;DHT22;57248;47.320;15.998;2022-09-12T08:26:09;24.19;47.27
69938;DHT22;57248;47.320;15.998;2022-09-12T08:28:35;23.74;49.04
69938;DHT22;57248;47.320;15.998;2022-09-12T08:31:02;26.55;44.44
69938;DHT22;57248;47.320;15.998;2022-09-12T08:33:29;25.41;45.27
69938;DHT22;57248;47.320;15.998;2022-09-12T08:36:19;22.83;50.25
69938;DHT22;57248;47.320;15.998;2022-09-12T08:38:48;22.96;51.05
69938;DHT22;57248;47.320;15.998;2022-09-12T08:46:37;22.29;50.86
69938;DHT22;57248;47.320;15.998;2022-09-12T08:49:09;22.25;51.35
69938;DHT22;57248;47.320;15.998;2022-09-12T08:51:38;22.75;49.39
69938;DHT22;57248;47.320;15.998;2022-09-12T08:54:08;22.88;49.92
69938;DHT22;57248;47.320;15.998;2022-09-12T08:56:38;22.18;51.77
69938;DHT22;57248;47.320;15.998;2022-09-12T08:59:04;22.45;53.29
69938;DHT22;57248;47.320;15.998;2022-09-12T09:01:39;21.96;52.18
69938;DHT22;57248;47.320;15.998;2022-09-12T09:04:31;21.84;52.83
69938;DHT22;57248;47.320;15.998;2022-09-12T09:10:07;21.91;52.90
69938;DHT22;57248;47.320;15.998;2022-09-12T09:15:40;22.90;51.82
69938;DHT22;57248;47.320;15.998;2022-09-12T09:20:52;24.41;49.85
69938;DHT22;57248;47.320;15.998;2022-09-12T09:23:27;25.90;46.80
69938;DHT22;57248;47.320;15.998;2022-09-12T09:28:50;28.08;39.35
69938;DHT22;57248;47.320;15.998;2022-09-12T09:31:22;30.27;39.71
69938;DHT22;57248;47.320;15.998;2022-09-12T09:33:53;28.25;39.24
69938;DHT22;57248;47.320;15.998;2022-09-12T09:39:11;30.69;34.88
69938;DHT22;57248;47.320;15.998;2022-09-12T09:44:47;30.95;33.20
69938;DHT22;57248;47.320;15.998;2022-09-12T09:47:13;32.03;31.61
69938;DHT22;57248;47.320;15.998;2022-09-12T09:49:39;28.29;36.00
69938;DHT22;57248;47.320;15.998;2022-09-12T09:52:07;30.03;35.40
69938;DHT22;57248;47.320;15.998;2022-09-12T10:00:31;28.32;37.06
69938;DHT22;57248;47.320;15.998;2022-09-12T10:05:44;27.84;36.57
69938;DHT22;57248;47.320;15.998;2022-09-12T10:08:26;28.53;36.40
69938;DHT22;57248;47.320;15.998;2022-09-12T10:10:59;28.56;36.75
69938;DHT22;57248;47.320;15.998;2022-09-12T10:13:31;31.19;33.70
69938;DHT22;57248;47.320;15.998;2022-09-12T10:16:08;30.30;33.92
69938;DHT22;57248;47.320;15.998;2022-09-12T10:18:44;29.01;36.02
69938;DHT22;57248;47.320;15.998;2022-09-12T10:21:20;29.24;35.81
69938;DHT22;57248;47.320;15.998;2022-09-12T10:24:15;29.25;36.00
69938;DHT22;57248;47.320;15.998;2022-09-12T10:26:38;30.98;35.33
69938;DHT22;57248;47.320;15.998;2022-09-12T10:29:24;31.15;34.51
69938;DHT22;57248;47.320;15.998;2022-09-12T10:31:57;29.55;35.13
69938;DHT22;57248;47.320;15.998;2022-09-12T10:34:30;29.01;36.38
69938;DHT22;57248;47.320;15.998;2022-09-12T10:37:07;28.08;38.33
69938;DHT22;57248;47.320;15.998;2022-09-12T10:39:34;27.22;38.55
69938;DHT22;57248;47.320;15.998;2022-09-12T10:42:02;26.45;41.20
69938;DHT22;57248;47.320;15.998;2022-09-12T10:44:33;26.16;42.23
69938;DHT22;57248;47.320;15.998;2022-09-12T10:47:19;25.29;43.50
69938;DHT22;57248;47.320;15.998;2022-09-12T10:49:45;26.18;40.85
69938;DHT22;57248;47.320;15.998;2022-09-12T10:52:22;26.27;41.26
69938;DHT22;57248;47.320;15.998;2022-09-12T10:54:49;26.24;40.87
69938;DHT22;57248;47.320;15.998;2022-09-12T11:00:14;26.00;41.33
69938;DHT22;57248;47.320;15.998;2022-09-12T11:11:06;27.00;40.53
69938;DHT22;57248;47.320;15.998;2022-09-12T11:14:03;27.94;40.72
69938;DHT22;57248;47.320;15.998;2022-09-12T11:30:10;34.96;28.47
69938;DHT22;57248;47.320;15.998;2022-09-12T11:35:46;28.43;36.60
69938;DHT22;57248;47.320;15.998;2022-09-12T11:41:09;32.54;32.95
69938;DHT22;57248;47.320;15.998;2022-09-12T11:43:58;32.58;33.36
69938;DHT22;57248;47.320;15.998;2022-09-12T11:46:33;32.93;32.28
69938;DHT22;57248;47.320;15.998;2022-09-12T11:54:38;32.08;29.41
69938;DHT22;57248;47.320;15.998;2022-09-12T12:00:26;31.63;33.99
69938;DHT22;57248;47.320;15.998;2022-09-12T12:03:00;34.78;31.24
69938;DHT22;57248;47.320;15.998;2022-09-12T12:05:34;39.56;25.51
69938;DHT22;57248;47.320;15.998;2022-09-12T12:08:05;37.76;26.60
69938;DHT22;57248;47.320;15.998;2022-09-12T12:13:02;39.43;23.68
69938;DHT22;57248;47.320;15.998;2022-09-12T12:15:30;41.03;23.72
69938;DHT22;57248;47.320;15.998;2022-09-12T12:18:07;38.88;25.77
69938;DHT22;57248;47.320;15.998;2022-09-12T12:20:39;40.62;22.65
69938;DHT22;57248;47.320;15.998;2022-09-12T12:23:04;41.88;22.76
69938;DHT22;57248;47.320;15.998;2022-09-12T12:25:40;35.18;26.56
69938;DHT22;57248;47.320;15.998;2022-09-12T12:28:06;38.78;24.12
69938;DHT22;57248;47.320;15.998;2022-09-12T12:35:44;39.43;23.50
69938;DHT22;57248;47.320;15.998;2022-09-12T12:38:31;32.76;29.84
69938;DHT22;57248;47.320;15.998;2022-09-12T12:43:45;34.80;28.48
69938;DHT22;57248;47.320;15.998;2022-09-12T12:46:33;34.19;27.37
69938;DHT22;57248;47.320;15.998;2022-09-12T12:49:10;32.92;30.09
69938;DHT22;57248;47.320;15.998;2022-09-12T12:51:58;29.34;34.61
69938;DHT22;57248;47.320;15.998;2022-09-12T12:57:22;33.85;28.58
69938;DHT22;57248;47.320;15.998;2022-09-12T13:00:03;31.87;31.55
69938;DHT22;57248;47.320;15.998;2022-09-12T13:02:37;29.73;34.76
69938;DHT22;57248;47.320;15.998;2022-09-12T13:05:17;28.01;36.27
69938;DHT22;57248;47.320;15.998;2022-09-12T13:07:44;29.65;35.27
69938;DHT22;57248;47.320;15.998;2022-09-12T13:10:24;31.81;32.79
69938;DHT22;57248;47.320;15.998;2022-09-12T13:12:54;29.62;36.50
69938;DHT22;57248;47.320;15.998;2022-09-12T13:18:06;30.37;34.64
69938;DHT22;57248;47.320;15.998;2022-09-12T13:23:28;29.93;35.62
69938;DHT22;57248;47.320;15.998;2022-09-12T13:25:59;33.88;29.23
69938;DHT22;57248;47.320;15.998;2022-09-12T13:28:29;38.75;25.05
69938;DHT22;57248;47.320;15.998;2022-09-12T13:33:58;31.08;33.18
69938;DHT22;57248;47.320;15.998;2022-09-12T13:45:04;28.05;37.00
69938;DHT22;57248;47.320;15.998;2022-09-12T13:47:36;28.49;36.83
69938;DHT22;57248;47.320;15.998;2022-09-12T13:50:04;28.76;35.67
69938;DHT22;57248;47.320;15.998;2022-09-12T13:52:33;29.38;35.44
69938;DHT22;57248;47.320;15.998;2022-09-12T13:55:05;32.71;31.17
69938;DHT22;57248;47.320;15.998;2022-09-12T13:57:37;29.58;35.03
69938;DHT22;57248;47.320;15.998;2022-09-12T14:00:07;34.45;29.45
69938;DHT22;57248;47.320;15.998;2022-09-12T14:02:39;37.59;24.75
69938;DHT22;57248;47.320;15.998;2022-09-12T14:05:23;39.43;22.59
69938;DHT22;57248;47.320;15.998;2022-09-12T14:10:35;35.30;25.45
69938;DHT22;57248;47.320;15.998;2022-09-12T14:13:11;31.02;31.90
69938;DHT22;57248;47.320;15.998;2022-09-12T14:15:37;29.80;33.01
69938;DHT22;57248;47.320;15.998;2022-09-12T14:18:04;30.44;33.78
69938;DHT22;57248;47.320;15.998;2022-09-12T14:20:36;32.93;28.20
69938;DHT22;57248;47.320;15.998;2022-09-12T14:23:14;29.90;33.34
69938;DHT22;57248;47.320;15.998;2022-09-12T14:25:42;34.71;27.12
69938;DHT22;57248;47.320;15.998;2022-09-12T14:28:13;34.90;25.45
69938;DHT22;57248;47.320;15.998;2022-09-12T14:30:39;33.00;27.97
69938;DHT22;57248;47.320;15.998;2022-09-12T14:35:40;34.35;28.01
69938;DHT22;57248;47.320;15.998;2022-09-12T14:38:23;34.23;26.86
69938;DHT22;57248;47.320;15.998;2022-09-12T14:41:01;30.96;31.03
69938;DHT22;57248;47.320;15.998;2022-09-12T14:43:29;26.61;37.18
69938;DHT22;57248;47.320;15.998;2022-09-12T14:46:16;26.59;38.24
69938;DHT22;57248;47.320;15.998;2022-09-12T14:48:59;26.25;39.51
69938;DHT22;57248;47.320;15.998;2022-09-12T14:51:35;28.90;36.69
69938;DHT22;57248;47.320;15.998;2022-09-12T14:54:01;28.94;35.95
69938;DHT22;57248;47.320;15.998;2022-09-12T14:56:39;27.26;37.97
69938;DHT22;57248;47.320;15.998;2022-09-12T14:59:28;26.91;39.00
69938;DHT22;57248;47.320;15.998;2022-09-12T15:04:42;25.05;42.21
69938;DHT22;57248;47.320;15.998;2022-09-12T15:09:39;25.85;41.78
69938;DHT22;57248;47.320;15.998;2022-09-12T15:12:05;26.40;40.29
69938;DHT22;57248;47.320;15.998;2022-09-12T15:14:30;26.12;39.88
69938;DHT22;57248;47.320;15.998;2022-09-12T15:16:56;26.54;38.76
69938;DHT22;57248;47.320;15.998;2022-09-12T15:19:21;26.52;39.61
69938;DHT22;57248;47.320;15.998;2022-09-12T15:21:47;24.91;42.87
69938;DHT22;57248;47.320;15.998;2022-09-12T15:24:12;25.42;41.40
69938;DHT22;57248;47.320;15.998;2022-09-12T15:26:37;26.45;40.29
69938;DHT22;57248;47.320;15.998;2022-09-12T15:29:03;26.12;40.11
69938;DHT22;57248;47.320;15.998;2022-09-12T15:31:30;26.04;40.57
69938;DHT22;57248;47.320;15.998;2022-09-12T15:33:58;26.08;39.43
69938;DHT22;57248;47.320;15.998;2022-09-12T15:36:24;26.38;40.71
69938;DHT22;57248;47.320;15.998;2022-09-12T15:38:52;26.37;40.70
69938;DHT22;57248;47.320;15.998;2022-09-12T15:41:27;25.53;40.46
69938;DHT22;57248;47.320;15.998;2022-09-12T15:43:53;25.56;40.00
69938;DHT22;57248;47.320;15.998;2022-09-12T15:46:20;25.47;40.57
69938;DHT22;57248;47.320;15.998;2022-09-12T15:48:46;25.59;40.45
69938;DHT22;57248;47.320;15.998;2022-09-12T15:51:13;25.86;40.47
69938;DHT22;57248;47.320;15.998;2022-09-12T15:53:40;26.30;41.71
69938;DHT22;57248;47.320;15.998;2022-09-12T15:56:05;26.08;41.09
69938;DHT22;57248;47.320;15.998;2022-09-12T15:58:31;25.79;43.06
69938;DHT22;57248;47.320;15.998;2022-09-12T16:00:56;25.05;44.48
69938;DHT22;57248;47.320;15.998;2022-09-12T16:03:24;25.18;43.34
69938;DHT22;57248;47.320;15.998;2022-09-12T16:05:58;25.14;45.25
69938;DHT22;57248;47.320;15.998;2022-09-12T16:08:25;24.77;42.71
69938;DHT22;57248;47.320;15.998;2022-09-12T16:10:53;24.44;44.40
69938;DHT22;57248;47.320;15.998;2022-09-12T16:13:20;24.08;45.70
69938;DHT22;57248;47.320;15.998;2022-09-12T16:15:46;24.22;44.58
69938;DHT22;57248;47.320;15.998;2022-09-12T16:18:11;24.23;45.06
69938;DHT22;57248;47.320;15.998;2022-09-12T16:20:38;24.44;46.00
69938;DHT22;57248;47.320;15.998;2022-09-12T16:23:05;24.29;44.90
69938;DHT22;57248;47.320;15.998;2022-09-12T16:25:32;23.95;44.62
69938;DHT22;57248;47.320;15.998;2022-09-12T16:27:58;23.95;45.12
69938;DHT22;57248;47.320;15.998;2022-09-12T16:30:25;23.75;46.07
69938;DHT22;57248;47.320;15.998;2022-09-12T16:32:52;23.20;48.54
69938;DHT22;57248;47.320;15.998;2022-09-12T16:35:18;22.68;50.55
69938;DHT22;57248;47.320;15.998;2022-09-12T16:37:43;22.62;51.46
69938;DHT22;57248;47.320;15.998;2022-09-12T16:40:09;22.80;51.84
69938;DHT22;57248;47.320;15.998;2022-09-12T16:42:35;22.34;54.24
69938;DHT22;57248;47.320;15.998;2022-09-12T16:45:00;22.35;52.36
69938;DHT22;57248;47.320;15.998;2022-09-12T16:47:27;21.89;54.03
69938;DHT22;57248;47.320;15.998;2022-09-12T16:49:56;21.86;54.08
69938;DHT22;57248;47.320;15.998;2022-09-12T16:52:22;21.61;54.14
69938;DHT22;57248;47.320;15.998;2022-09-12T16:54:48;21.47;53.35
69938;DHT22;57248;47.320;15.998;2022-09-12T16:57:13;21.12;55.34
69938;DHT22;57248;47.320;15.998;2022-09-12T16:59:39;20.88;57.65
69938;DHT22;57248;47.320;15.998;2022-09-12T17:02:04;20.57;59.70
69938;DHT22;57248;47.320;15.998;2022-09-12T17:04:30;20.44;60.20
69938;DHT22;57248;47.320;15.998;2022-09-12T17:06:55;20.43;59.23
69938;DHT22;57248;47.320;15.998;2022-09-12T17:09:24;20.32;59.38
69938;DHT22;57248;47.320;15.998;2022-09-12T17:11:49;20.05;60.33
69938;DHT22;57248;47.320;15.998;2022-09-12T17:14:16;19.90;60.50
69938;DHT22;57248;47.320;15.998;2022-09-12T17:16:44;19.64;62.15
69938;DHT22;57248;47.320;15.998;2022-09-12T17:19:14;19.45;62.91
69938;DHT22;57248;47.320;15.998;2022-09-12T17:21:40;19.11;64.29
69938;DHT22;57248;47.320;15.998;2022-09-12T17:24:06;19.15;64.06
69938;DHT22;57248;47.320;15.998;2022-09-12T17:26:31;19.07;64.99
69938;DHT22;57248;47.320;15.998;2022-09-12T17:28:59;18.83;65.54
69938;DHT22;57248;47.320;15.998;2022-09-12T17:31:24;18.45;66.57
69938;DHT22;57248;47.320;15.998;2022-09-12T17:33:54;18.55;65.69
69938;DHT22;57248;47.320;15.998;2022-09-12T17:36:20;18.51;65.08
69938;DHT22;57248;47.320;15.998;2022-09-12T17:38:46;18.49;65.81
69938;DHT22;57248;47.320;15.998;2022-09-12T17:43:40;18.16;67.64
69938;DHT22;57248;47.320;15.998;2022-09-12T17:46:06;18.11;67.91
69938;DHT22;57248;47.320;15.998;2022-09-12T17:48:32;17.51;70.42
69938;DHT22;57248;47.320;15.998;2022-09-12T17:51:06;17.30;69.92
69938;DHT22;57248;47.320;15.998;2022-09-12T17:53:32;17.15;70.61
69938;DHT22;57248;47.320;15.998;2022-09-12T17:56:01;17.36;69.83
69938;DHT22;57248;47.320;15.998;2022-09-12T17:58:27;17.27;70.33
69938;DHT22;57248;47.320;15.998;2022-09-12T18:01:00;17.14;70.94
69938;DHT22;57248;47.320;15.998;2022-09-12T18:03:44;17.06;70.78
69938;DHT22;57248;47.320;15.998;2022-09-12T18:06:10;16.74;71.62
69938;DHT22;57248;47.320;15.998;2022-09-12T18:08:36;16.65;71.98
69938;DHT22;57248;47.320;15.998;2022-09-12T18:11:05;16.50;73.41
69938;DHT22;57248;47.320;15.998;2022-09-12T18:13:32;16.37;73.86
69938;DHT22;57248;47.320;15.998;2022-09-12T18:16:06;16.63;72.23